createdAt,value
2022-11-05T00:02:53.738Z,8.90
2022-11-05T00:06:13.921Z,8.80
2022-11-05T00:09:31.030Z,9.10
2022-11-05T00:12:51.675Z,8.90
2022-11-05T00:16:12.255Z,8.70
2022-11-05T00:19:14.833Z,8.60
2022-11-05T00:22:34.935Z,9.80
2022-11-05T00:25:36.460Z,8.80
2022-11-05T00:28:43.702Z,8.90
2022-11-05T00:31:45.244Z,8.40
2022-11-05T00:34:46.770Z,8.70
2022-11-05T00:37:50.219Z,8.40
2022-11-05T00:40:52.294Z,8.60
2022-11-05T00:44:12.866Z,8.40
2022-11-05T00:47:32.904Z,8.40
2022-11-05T00:50:34.735Z,8.50
2022-11-05T00:53:36.315Z,8.30
2022-11-05T00:56:37.845Z,8.80
2022-11-05T00:59:39.393Z,8.40
2022-11-05T01:02:41.054Z,8.20
2022-11-05T01:05:46.363Z,8.30
2022-11-05T01:08:47.964Z,8.20
2022-11-05T01:11:51.233Z,8.30
2022-11-05T01:14:52.820Z,8.20
2022-11-05T01:17:54.352Z,8.40
2022-11-05T01:20:56.016Z,8.10
2022-11-05T01:23:57.625Z,8.10
2022-11-05T01:26:59.261Z,8.70
2022-11-05T01:30:00.824Z,8.00
2022-11-05T01:33:03.420Z,8.60
2022-11-05T01:36:05.451Z,8.50
2022-11-05T01:39:07.012Z,8.00
2022-11-05T01:42:20.223Z,8.20
2022-11-05T01:45:27.349Z,8.10
2022-11-05T01:48:33.850Z,8.00
2022-11-05T01:51:39.568Z,8.30
2022-11-05T01:54:41.191Z,8.50
2022-11-05T01:57:42.816Z,8.10
2022-11-05T02:00:44.553Z,8.20
2022-11-05T02:03:48.907Z,7.70
2022-11-05T02:06:50.626Z,8.10
2022-11-05T02:10:02.496Z,8.00
2022-11-05T02:13:04.049Z,8.10
2022-11-05T02:16:34.438Z,7.90
2022-11-05T02:24:11.201Z,7.80
2022-11-05T02:27:53.793Z,8.20
2022-11-05T02:31:22.826Z,8.00
2022-11-05T02:34:56.802Z,8.20
2022-11-05T02:38:07.594Z,8.00
2022-11-05T02:41:11.872Z,7.80
2022-11-05T02:44:22.198Z,8.20
2022-11-05T02:47:32.869Z,7.80
2022-11-05T02:50:37.520Z,8.10
2022-11-05T02:53:46.976Z,7.90
2022-11-05T02:56:51.599Z,7.90
2022-11-05T03:00:46.799Z,7.50
2022-11-05T03:04:00.936Z,7.80
2022-11-05T03:07:14.123Z,7.90
2022-11-05T03:10:31.493Z,7.70
2022-11-05T03:13:45.019Z,7.80
2022-11-05T03:16:55.002Z,7.80
2022-11-05T03:20:08.583Z,7.50
2022-11-05T03:23:17.435Z,8.10
2022-11-05T03:26:23.707Z,8.00
2022-11-05T03:29:32.261Z,7.30
2022-11-05T03:32:37.179Z,7.60
2022-11-05T03:35:44.976Z,7.20
2022-11-05T03:38:49.889Z,7.40
2022-11-05T03:41:53.606Z,8.10
2022-11-05T03:45:00.150Z,7.70
2022-11-05T03:48:04.323Z,7.70
2022-11-05T03:51:16.560Z,7.80
2022-11-05T03:54:18.189Z,7.60
2022-11-05T03:57:31.247Z,7.80
2022-11-05T04:00:33.354Z,7.90
2022-11-05T04:03:36.590Z,7.70
2022-11-05T04:06:56.902Z,7.50
2022-11-05T04:10:17.726Z,7.70
2022-11-05T04:13:25.049Z,7.70
2022-11-05T04:16:45.135Z,7.40
2022-11-05T04:20:05.494Z,7.60
2022-11-05T04:23:25.746Z,7.60
2022-11-05T04:26:27.313Z,7.90
2022-11-05T04:29:47.346Z,7.70
2022-11-05T04:33:13.706Z,7.70
2022-11-05T04:36:16.735Z,7.70
2022-11-05T04:39:19.372Z,8.10
2022-11-05T04:42:20.972Z,7.50
2022-11-05T04:45:24.311Z,7.70
2022-11-05T04:48:25.873Z,7.80
2022-11-05T04:51:27.477Z,8.00
2022-11-05T04:54:29.079Z,7.30
2022-11-05T04:57:30.707Z,7.60
2022-11-05T05:00:32.294Z,7.50
2022-11-05T05:03:33.955Z,7.50
2022-11-05T05:06:35.653Z,7.50
2022-11-05T05:09:37.259Z,7.30
2022-11-05T05:12:38.975Z,8.20
2022-11-05T05:15:40.525Z,7.60
2022-11-05T05:18:46.561Z,7.40
2022-11-05T05:21:48.259Z,7.70
2022-11-05T05:24:52.718Z,7.70
2022-11-05T05:27:57.756Z,7.60
2022-11-05T05:31:00.628Z,7.50
2022-11-05T05:34:05.503Z,7.10
2022-11-05T05:37:07.231Z,7.60
2022-11-05T05:40:09.807Z,7.50
2022-11-05T05:43:11.867Z,7.50
2022-11-05T05:46:18.526Z,7.30
2022-11-05T05:49:20.063Z,7.50
2022-11-05T05:52:21.705Z,7.90
2022-11-05T05:55:23.287Z,7.70
2022-11-05T05:58:31.418Z,7.80
2022-11-05T06:01:33.116Z,7.40
2022-11-05T06:04:34.783Z,7.20
2022-11-05T06:07:37.588Z,7.70
2022-11-05T06:10:42.581Z,7.00
2022-11-05T06:13:44.305Z,8.60
2022-11-05T06:16:45.916Z,7.40
2022-11-05T06:19:47.856Z,7.60
2022-11-05T06:22:57.058Z,7.60
2022-11-05T06:26:06.583Z,7.70
2022-11-05T06:29:09.635Z,7.40
2022-11-05T06:32:11.177Z,7.40
2022-11-05T06:35:12.937Z,7.80
2022-11-05T06:38:14.554Z,7.10
2022-11-05T06:41:16.143Z,7.30
2022-11-05T06:44:17.682Z,7.50
2022-11-05T06:47:20.067Z,7.40
2022-11-05T06:50:21.613Z,7.60
2022-11-05T06:53:23.483Z,7.70
2022-11-05T06:56:25.134Z,7.20
2022-11-05T06:59:26.852Z,7.30
2022-11-05T07:02:28.404Z,7.40
2022-11-05T07:05:30.844Z,7.50
2022-11-05T07:08:36.469Z,7.40
2022-11-05T07:11:38.030Z,7.50
2022-11-05T07:14:39.560Z,7.40
2022-11-05T07:17:41.130Z,7.60
2022-11-05T07:20:42.704Z,7.80
2022-11-05T07:23:44.248Z,7.60
2022-11-05T07:26:45.774Z,7.80
2022-11-05T07:29:47.369Z,9.90
2022-11-05T07:32:48.930Z,8.00
2022-11-05T07:35:50.473Z,9.50
2022-11-05T07:38:54.923Z,7.80
2022-11-05T07:42:00.622Z,7.40
2022-11-05T07:45:02.206Z,7.80
2022-11-05T07:48:04.901Z,7.90
2022-11-05T07:51:06.544Z,7.90
2022-11-05T07:54:08.146Z,8.20
2022-11-05T07:57:09.671Z,7.50
2022-11-05T08:00:14.111Z,7.80
2022-11-05T08:03:17.966Z,8.00
2022-11-05T08:06:20.117Z,8.20
2022-11-05T08:09:21.664Z,8.30
2022-11-05T08:12:23.487Z,8.30
2022-11-05T08:15:25.367Z,7.60
2022-11-05T08:18:31.325Z,8.40
2022-11-05T08:21:32.874Z,8.20
2022-11-05T08:24:34.436Z,8.00
2022-11-05T08:27:36.033Z,8.60
2022-11-05T08:30:37.613Z,7.90
2022-11-05T08:33:39.115Z,8.40
2022-11-05T08:36:43.176Z,8.30
2022-11-05T08:39:44.756Z,8.50
2022-11-05T08:42:46.330Z,8.10
2022-11-05T08:45:48.082Z,8.70
2022-11-05T08:48:49.929Z,8.60
2022-11-05T08:51:51.492Z,8.60
2022-11-05T08:54:53.054Z,8.40
2022-11-05T08:57:59.663Z,8.60
2022-11-05T09:01:05.386Z,9.00
2022-11-05T09:04:07.327Z,8.90
2022-11-05T09:07:08.994Z,8.90
2022-11-05T09:10:10.880Z,8.70
2022-11-05T09:13:18.407Z,9.00
2022-11-05T09:16:24.991Z,9.10
2022-11-05T09:19:26.587Z,8.60
2022-11-05T09:22:28.139Z,9.20
2022-11-05T09:25:29.724Z,9.50
2022-11-05T09:28:34.146Z,9.20
2022-11-05T09:31:35.701Z,9.20
2022-11-05T09:34:37.620Z,9.40
2022-11-05T09:37:39.178Z,9.50
2022-11-05T09:40:55.556Z,9.70
2022-11-05T09:44:05.238Z,9.60
2022-11-05T09:47:14.608Z,9.70
2022-11-05T09:50:30.339Z,10.00
2022-11-05T09:53:32.038Z,10.10
2022-11-05T09:56:37.137Z,10.10
2022-11-05T09:59:58.377Z,10.00
2022-11-05T10:03:06.767Z,10.50
2022-11-05T10:06:10.948Z,10.10
2022-11-05T10:09:26.504Z,10.20
2022-11-05T10:12:34.166Z,10.50
2022-11-05T10:15:40.412Z,10.40
2022-11-05T10:18:47.355Z,10.20
2022-11-05T10:22:05.965Z,10.80
2022-11-05T10:25:21.885Z,10.50
2022-11-05T10:28:29.820Z,10.50
2022-11-05T10:31:37.003Z,10.80
2022-11-05T10:34:39.512Z,10.70
2022-11-05T10:37:41.335Z,10.90
2022-11-05T10:41:01.619Z,11.20
2022-11-05T10:44:24.870Z,11.20
2022-11-05T10:47:40.912Z,11.30
2022-11-05T10:50:44.300Z,10.90
2022-11-05T10:54:01.609Z,11.30
2022-11-05T10:57:28.594Z,11.70
2022-11-05T11:00:30.383Z,11.30
2022-11-05T11:03:48.490Z,11.90
2022-11-05T11:06:53.614Z,11.40
2022-11-05T11:09:55.286Z,11.20
2022-11-05T11:12:57.402Z,11.40
2022-11-05T11:16:19.504Z,11.30
2022-11-05T11:19:21.268Z,11.70
2022-11-05T11:22:22.923Z,11.50
2022-11-05T11:25:26.226Z,11.70
2022-11-05T11:28:39.564Z,13.40
2022-11-05T11:31:41.804Z,11.90
2022-11-05T11:34:46.018Z,11.70
2022-11-05T11:37:48.364Z,12.00
2022-11-05T11:40:51.237Z,12.00
2022-11-05T11:44:01.089Z,12.30
2022-11-05T11:47:09.478Z,12.90
2022-11-05T11:50:35.726Z,11.90
2022-11-05T11:53:37.332Z,12.20
2022-11-05T11:56:46.659Z,11.10
2022-11-05T12:00:07.836Z,12.00
2022-11-05T12:03:38.260Z,11.80
2022-11-05T12:07:02.362Z,12.00
2022-11-05T12:10:28.778Z,12.00
2022-11-05T12:14:04.226Z,12.10
2022-11-05T12:17:20.498Z,12.20
2022-11-05T12:20:43.647Z,12.50
2022-11-05T12:23:57.199Z,12.10
2022-11-05T12:27:32.690Z,12.40
2022-11-05T12:30:59.594Z,12.30
2022-11-05T12:34:04.159Z,12.20
2022-11-05T12:37:24.569Z,12.70
2022-11-05T12:40:41.376Z,12.00
2022-11-05T12:44:19.886Z,12.40
2022-11-05T12:47:24.453Z,12.10
2022-11-05T12:50:52.243Z,13.70
2022-11-05T12:54:35.633Z,12.70
2022-11-05T12:57:40.878Z,12.90
2022-11-05T13:00:45.974Z,12.10
2022-11-05T13:03:59.989Z,12.00
2022-11-05T13:07:06.331Z,12.50
2022-11-05T13:10:25.605Z,12.30
2022-11-05T13:13:41.224Z,12.10
2022-11-05T13:16:50.764Z,12.10
2022-11-05T13:20:17.173Z,12.30
2022-11-05T13:23:31.036Z,12.30
2022-11-05T13:26:52.417Z,12.10
2022-11-05T13:30:01.854Z,12.20
2022-11-05T13:33:11.672Z,12.50
2022-11-05T13:36:57.019Z,12.40
2022-11-05T13:40:02.993Z,12.00
2022-11-05T13:43:29.019Z,12.30
2022-11-05T13:46:49.427Z,12.10
2022-11-05T13:50:15.970Z,12.30
2022-11-05T13:53:48.711Z,12.30
2022-11-05T13:57:19.395Z,12.40
2022-11-05T14:00:26.931Z,12.30
2022-11-05T14:03:29.120Z,12.40
2022-11-05T14:06:36.273Z,12.40
2022-11-05T14:09:39.574Z,12.20
2022-11-05T14:12:46.098Z,12.20
2022-11-05T14:16:07.077Z,11.90
2022-11-05T14:19:20.621Z,12.20
2022-11-05T14:22:31.286Z,12.30
2022-11-05T14:25:35.538Z,11.80
2022-11-05T14:28:37.608Z,12.10
2022-11-05T14:32:07.827Z,13.20
2022-11-05T14:35:17.249Z,12.10
2022-11-05T14:38:20.965Z,12.00
2022-11-05T14:41:23.324Z,12.00
2022-11-05T14:44:26.329Z,11.90
2022-11-05T14:47:36.470Z,13.20
2022-11-05T14:50:41.461Z,11.60
2022-11-05T14:53:43.264Z,11.70
2022-11-05T14:56:55.911Z,11.90
2022-11-05T15:00:00.839Z,11.70
2022-11-05T15:03:31.764Z,14.20
2022-11-05T15:06:36.261Z,12.00
2022-11-05T15:09:51.458Z,12.10
2022-11-05T15:13:03.925Z,12.50
2022-11-05T15:16:07.032Z,13.00
2022-11-05T15:19:29.267Z,11.80
2022-11-05T15:22:45.118Z,12.30
2022-11-05T15:26:15.670Z,11.90
2022-11-05T15:29:24.560Z,11.60
2022-11-05T15:32:27.906Z,11.10
2022-11-05T15:35:30.381Z,11.80
2022-11-05T15:38:34.205Z,11.20
2022-11-05T15:41:35.806Z,11.60
2022-11-05T15:44:42.925Z,11.40
2022-11-05T15:47:46.158Z,13.20
2022-11-05T15:50:47.790Z,11.40
2022-11-05T15:54:23.867Z,11.20
2022-11-05T15:57:25.453Z,13.20
2022-11-05T16:00:29.391Z,11.50
2022-11-05T16:03:33.265Z,11.10
2022-11-05T16:06:38.635Z,11.10
2022-11-05T16:09:43.860Z,11.30
2022-11-05T16:12:45.445Z,11.30
2022-11-05T16:15:54.798Z,11.30
2022-11-05T16:18:56.387Z,13.60
2022-11-05T16:21:57.968Z,11.30
2022-11-05T16:24:59.503Z,11.60
2022-11-05T16:28:01.700Z,11.50
2022-11-05T16:31:05.375Z,11.10
2022-11-05T16:34:07.298Z,11.10
2022-11-05T16:37:13.322Z,11.40
2022-11-05T16:40:18.212Z,11.60
2022-11-05T16:43:23.097Z,10.80
2022-11-05T16:46:28.616Z,13.10
2022-11-05T16:49:30.185Z,11.30
2022-11-05T16:52:31.783Z,13.30
2022-11-05T16:55:36.220Z,11.60
2022-11-05T16:58:37.809Z,11.00
2022-11-05T17:01:42.043Z,11.30
2022-11-05T17:04:43.636Z,10.90
2022-11-05T17:07:45.331Z,11.30
2022-11-05T17:10:46.910Z,11.20
2022-11-05T17:13:48.509Z,11.10
2022-11-05T17:16:50.240Z,11.20
2022-11-05T17:19:51.795Z,11.30
2022-11-05T17:22:53.897Z,10.90
2022-11-05T17:26:05.393Z,11.20
2022-11-05T17:29:06.924Z,11.10
2022-11-05T17:32:08.459Z,11.30
2022-11-05T17:35:10.191Z,11.00
2022-11-05T17:38:12.650Z,11.20
2022-11-05T17:41:22.566Z,11.00
2022-11-05T17:44:24.132Z,11.10
2022-11-05T17:47:26.751Z,11.20
2022-11-05T17:50:28.586Z,11.20
2022-11-05T17:53:30.904Z,11.10
2022-11-05T17:56:34.901Z,11.00
2022-11-05T17:59:37.901Z,11.00
2022-11-05T18:02:39.784Z,10.90
2022-11-05T18:05:42.058Z,11.30
2022-11-05T18:08:43.925Z,10.90
2022-11-05T18:11:45.778Z,11.00
2022-11-05T18:14:47.312Z,11.00
2022-11-05T18:17:48.879Z,11.10
2022-11-05T18:20:50.459Z,12.10
2022-11-05T18:26:54.804Z,10.10
2022-11-05T18:29:56.395Z,10.70
2022-11-05T18:32:58.036Z,12.50
2022-11-05T18:35:59.666Z,11.90
2022-11-05T18:39:03.432Z,11.20
2022-11-05T18:42:05.873Z,11.20
2022-11-05T18:45:08.498Z,11.00
2022-11-05T18:48:10.352Z,10.90
2022-11-05T18:51:14.706Z,11.30
2022-11-05T18:54:16.362Z,10.80
2022-11-05T18:57:17.953Z,11.10
2022-11-05T19:00:20.313Z,10.80
2022-11-05T19:03:21.852Z,11.20
2022-11-05T19:06:27.586Z,11.00
2022-11-05T19:09:29.169Z,11.00
2022-11-05T19:12:31.021Z,10.60
2022-11-05T19:15:32.632Z,11.10
2022-11-05T19:18:34.379Z,11.80
2022-11-05T19:21:36.232Z,11.10
2022-11-05T19:24:40.385Z,11.10
2022-11-05T19:27:43.579Z,11.30
2022-11-05T19:30:45.368Z,10.80
2022-11-05T19:33:48.889Z,10.50
2022-11-05T19:36:50.453Z,10.80
2022-11-05T19:39:52.070Z,10.80
2022-11-05T19:42:53.643Z,10.80
2022-11-05T19:45:55.455Z,10.50
2022-11-05T19:48:57.617Z,12.80
2022-11-05T19:51:59.196Z,10.40
2022-11-05T19:55:00.917Z,10.60
2022-11-05T19:58:02.492Z,10.60
2022-11-05T20:01:04.584Z,10.60
2022-11-05T20:04:06.342Z,10.60
2022-11-05T20:07:08.117Z,10.60
2022-11-05T20:10:09.900Z,10.70
2022-11-05T20:13:17.026Z,10.40
2022-11-05T20:16:22.708Z,12.90
2022-11-05T20:19:24.472Z,10.70
2022-11-05T20:22:26.136Z,10.30
2022-11-05T20:25:27.651Z,10.70
2022-11-05T20:28:29.797Z,11.00
2022-11-05T20:31:31.435Z,10.60
2022-11-05T20:34:35.230Z,10.50
2022-11-05T20:37:36.780Z,10.60
2022-11-05T20:40:39.531Z,10.40
2022-11-05T20:43:41.407Z,10.80
2022-11-05T20:46:42.931Z,10.40
2022-11-05T20:49:44.505Z,10.70
2022-11-05T20:52:46.062Z,10.50
2022-11-05T20:55:48.193Z,10.40
2022-11-05T20:58:50.531Z,10.40
2022-11-05T21:01:52.487Z,10.50
2022-11-05T21:04:54.253Z,10.40
2022-11-05T21:07:56.064Z,10.50
2022-11-05T21:10:57.976Z,10.80
2022-11-05T21:13:59.624Z,10.30
2022-11-05T21:17:01.772Z,10.60
2022-11-05T21:20:06.233Z,10.80
2022-11-05T21:23:10.312Z,10.20
2022-11-05T21:26:13.949Z,10.40
2022-11-05T21:29:16.537Z,8.20
2022-11-05T21:32:18.192Z,11.10
2022-11-05T21:35:19.698Z,10.70
2022-11-05T21:38:22.989Z,9.90
2022-11-05T21:41:24.522Z,10.40
2022-11-05T21:44:26.092Z,9.90
2022-11-05T21:47:29.102Z,10.40
2022-11-05T21:50:49.160Z,10.70
2022-11-05T21:54:09.599Z,10.30
2022-11-05T21:57:38.625Z,10.00
2022-11-05T22:00:40.165Z,10.40
2022-11-05T22:03:41.702Z,12.40
2022-11-05T22:06:45.692Z,10.40
2022-11-05T22:09:47.301Z,10.30
2022-11-05T22:12:51.345Z,10.20
2022-11-05T22:15:56.468Z,10.40
2022-11-05T22:18:58.767Z,10.10
2022-11-05T22:22:00.443Z,10.20
2022-11-05T22:25:02.080Z,11.00
2022-11-05T22:28:04.029Z,9.90
2022-11-05T22:31:15.383Z,10.20
2022-11-05T22:34:18.598Z,10.10
2022-11-05T22:37:20.125Z,9.50
2022-11-05T22:40:24.030Z,9.80
2022-11-05T22:43:25.809Z,10.20
2022-11-05T22:46:27.610Z,9.90
2022-11-05T22:49:29.238Z,9.80
2022-11-05T22:52:32.780Z,9.60
2022-11-05T22:55:39.144Z,11.30
2022-11-05T22:58:41.236Z,10.00
2022-11-05T23:01:44.681Z,10.40
2022-11-05T23:04:46.332Z,10.00
2022-11-05T23:08:06.474Z,9.90
2022-11-05T23:11:38.372Z,10.20
2022-11-05T23:14:39.953Z,10.10
2022-11-05T23:18:00.310Z,10.40
2022-11-05T23:21:23.193Z,10.20
2022-11-05T23:24:24.877Z,10.00
2022-11-05T23:27:37.796Z,10.60
2022-11-05T23:31:03.316Z,10.10
2022-11-05T23:34:04.862Z,10.60
2022-11-05T23:37:25.692Z,9.90
2022-11-05T23:40:51.619Z,9.70
2022-11-05T23:44:13.317Z,9.70
2022-11-05T23:47:33.768Z,12.40
2022-11-05T23:50:39.725Z,9.60
2022-11-05T23:53:41.919Z,10.40
2022-11-05T23:56:43.527Z,10.00
2022-11-05T23:59:45.050Z,9.90
